createdAt,value
2024-03-24T00:00:45.428Z,3.5813
2024-03-24T00:01:50.321Z,3.5973
2024-03-24T00:02:55.106Z,3.5546
2024-03-24T00:04:00.033Z,3.5679
2024-03-24T00:05:04.884Z,3.7095
2024-03-24T00:06:09.666Z,3.6374
2024-03-24T00:07:14.530Z,3.6801
2024-03-24T00:08:19.309Z,3.6240
2024-03-24T00:09:24.205Z,3.6801
2024-03-24T00:10:29.246Z,3.6934
2024-03-24T00:11:33.999Z,3.7655
2024-03-24T00:12:38.778Z,3.7228
2024-03-24T00:13:43.656Z,3.7495
2024-03-24T00:14:48.511Z,3.7228
2024-03-24T00:15:53.254Z,3.7362
2024-03-24T00:16:58.049Z,3.7228
2024-03-24T00:18:02.862Z,3.7789
2024-03-24T00:19:07.748Z,3.7923
2024-03-24T00:20:12.513Z,3.8083
2024-03-24T00:21:17.444Z,3.8643
2024-03-24T00:22:22.391Z,3.8350
2024-03-24T00:23:27.161Z,3.8643
2024-03-24T00:24:31.931Z,3.8911
2024-03-24T00:25:36.745Z,3.9338
2024-03-24T00:26:41.523Z,3.9899
2024-03-24T00:27:46.359Z,4.0032
2024-03-24T00:28:51.197Z,3.9338
2024-03-24T00:29:55.989Z,3.8911
2024-03-24T00:31:00.840Z,3.8483
2024-03-24T00:32:05.738Z,3.9044
2024-03-24T00:33:10.703Z,3.9204
2024-03-24T00:34:15.667Z,3.8911
2024-03-24T00:35:20.416Z,3.9044
2024-03-24T00:36:25.277Z,3.9899
2024-03-24T00:37:30.224Z,3.8777
2024-03-24T00:38:35.206Z,3.8777
2024-03-24T00:39:42.501Z,3.8643
2024-03-24T00:40:50.702Z,3.8483
2024-03-24T00:41:55.515Z,3.8216
2024-03-24T00:43:00.480Z,3.8216
2024-03-24T00:44:05.391Z,3.7655
2024-03-24T00:45:10.167Z,3.8216
2024-03-24T00:46:15.027Z,3.8216
2024-03-24T00:47:19.974Z,3.8216
2024-03-24T00:48:24.736Z,3.7789
2024-03-24T00:49:29.621Z,3.7923
2024-03-24T00:50:34.550Z,3.7789
2024-03-24T00:51:39.309Z,3.7789
2024-03-24T00:52:44.133Z,3.8350
2024-03-24T00:53:48.922Z,3.8350
2024-03-24T00:54:53.740Z,3.7923
2024-03-24T00:55:58.494Z,3.8216
2024-03-24T00:57:03.331Z,3.8483
2024-03-24T00:58:08.136Z,3.8083
2024-03-24T00:59:12.933Z,3.7655
2024-03-24T01:00:17.734Z,3.7095
2024-03-24T01:01:22.512Z,3.7228
2024-03-24T01:02:27.320Z,3.6934
2024-03-24T01:03:32.107Z,3.6934
2024-03-24T01:04:36.858Z,3.7495
2024-03-24T01:05:41.736Z,3.6801
2024-03-24T01:06:46.675Z,3.6801
2024-03-24T01:07:51.460Z,3.6667
2024-03-24T01:08:56.304Z,3.6374
2024-03-24T01:10:01.076Z,3.6107
2024-03-24T01:11:05.896Z,3.6107
2024-03-24T01:12:10.855Z,3.5973
2024-03-24T01:13:15.610Z,3.5813
2024-03-24T01:14:20.464Z,3.5679
2024-03-24T01:15:25.278Z,3.5813
2024-03-24T01:16:30.053Z,3.5546
2024-03-24T01:17:34.847Z,3.5119
2024-03-24T01:18:39.668Z,3.4985
2024-03-24T01:19:44.463Z,3.5252
2024-03-24T01:20:49.317Z,3.5386
2024-03-24T01:21:54.238Z,3.4825
2024-03-24T01:22:58.978Z,3.4691
2024-03-24T01:24:03.854Z,3.4691
2024-03-24T01:25:08.822Z,3.4985
2024-03-24T01:26:13.557Z,3.4691
2024-03-24T01:27:18.382Z,3.4531
2024-03-24T01:28:23.341Z,3.4398
2024-03-24T01:29:28.256Z,3.4825
2024-03-24T01:30:33.029Z,3.4398
2024-03-24T01:31:37.894Z,3.4398
2024-03-24T01:32:42.698Z,3.4104
2024-03-24T01:33:47.499Z,3.4691
2024-03-24T01:34:52.292Z,3.4398
2024-03-24T01:35:57.108Z,3.4531
2024-03-24T01:37:02.081Z,3.4104
2024-03-24T01:38:07.028Z,3.3837
2024-03-24T01:39:11.961Z,3.4237
2024-03-24T01:40:16.735Z,3.3677
2024-03-24T01:41:21.605Z,3.3410
2024-03-24T01:42:26.507Z,3.3410
2024-03-24T01:43:31.305Z,3.3249
2024-03-24T01:44:36.067Z,3.2849
2024-03-24T01:45:40.878Z,3.2422
2024-03-24T01:46:45.744Z,3.2128
2024-03-24T01:47:50.520Z,3.1727
2024-03-24T01:48:55.335Z,3.1567
2024-03-24T01:50:00.232Z,3.1434
2024-03-24T01:51:04.947Z,3.1434
2024-03-24T01:52:09.922Z,3.1727
2024-03-24T01:53:14.853Z,3.1140
2024-03-24T01:54:19.637Z,3.1006
2024-03-24T01:55:24.472Z,3.0579
2024-03-24T01:56:29.283Z,3.0446
2024-03-24T01:57:34.105Z,3.0739
2024-03-24T01:58:38.886Z,3.0178
2024-03-24T01:59:43.668Z,3.0178
2024-03-24T02:00:48.590Z,2.9885
2024-03-24T02:01:53.586Z,2.9190
2024-03-24T02:02:58.520Z,2.8763
2024-03-24T02:04:03.465Z,2.8470
2024-03-24T02:05:08.416Z,2.7909
2024-03-24T02:06:13.199Z,2.8069
2024-03-24T02:07:18.009Z,2.8069
2024-03-24T02:08:22.993Z,2.7775
2024-03-24T02:09:27.958Z,2.7348
2024-03-24T02:10:32.692Z,2.7348
2024-03-24T02:11:37.526Z,2.7348
2024-03-24T02:12:42.499Z,2.6493
2024-03-24T02:13:47.476Z,2.7081
2024-03-24T02:14:52.404Z,2.6200
2024-03-24T02:15:57.201Z,2.6066
2024-03-24T02:17:02.006Z,2.6066
2024-03-24T02:18:07.010Z,2.5772
2024-03-24T02:19:11.827Z,2.5639
2024-03-24T02:20:16.646Z,2.5505
2024-03-24T02:21:21.526Z,2.5639
2024-03-24T02:22:26.288Z,2.5212
2024-03-24T02:23:31.137Z,2.4945
2024-03-24T02:24:36.087Z,2.4517
2024-03-24T02:25:40.874Z,2.4224
2024-03-24T02:26:45.710Z,2.4517
2024-03-24T02:27:50.677Z,2.3957
2024-03-24T02:28:55.548Z,2.3396
2024-03-24T02:30:00.313Z,2.2969
2024-03-24T02:31:05.204Z,2.2835
2024-03-24T02:32:10.114Z,2.2835
2024-03-24T02:33:14.920Z,2.2114
2024-03-24T02:34:19.788Z,2.2114
2024-03-24T02:35:24.674Z,2.2541
2024-03-24T02:36:29.447Z,2.2408
2024-03-24T02:37:34.376Z,2.3102
2024-03-24T02:38:39.124Z,2.3529
2024-03-24T02:39:43.939Z,2.3957
2024-03-24T02:40:49.216Z,2.4090
2024-03-24T02:41:54.053Z,2.5078
2024-03-24T02:42:58.861Z,2.5078
2024-03-24T02:44:03.795Z,2.4784
2024-03-24T02:45:08.755Z,2.4945
2024-03-24T02:46:13.780Z,2.5505
2024-03-24T02:47:18.534Z,2.5505
2024-03-24T02:48:23.296Z,2.5505
2024-03-24T02:49:28.250Z,2.6066
2024-03-24T02:50:33.039Z,2.6200
2024-03-24T02:51:37.855Z,2.6627
2024-03-24T02:52:42.823Z,2.6200
2024-03-24T02:53:47.787Z,2.6493
2024-03-24T02:54:52.719Z,2.6493
2024-03-24T02:55:57.507Z,2.6493
2024-03-24T02:57:02.392Z,2.6066
2024-03-24T02:58:07.360Z,2.6200
2024-03-24T02:59:12.093Z,2.6493
2024-03-24T03:00:16.887Z,2.6627
2024-03-24T03:01:21.857Z,2.6627
2024-03-24T03:02:26.604Z,2.6493
2024-03-24T03:03:31.450Z,2.6627
2024-03-24T03:04:36.215Z,2.6333
2024-03-24T03:05:41.053Z,2.6627
2024-03-24T03:06:45.846Z,2.6066
2024-03-24T03:07:50.659Z,2.6493
2024-03-24T03:08:55.624Z,2.6627
2024-03-24T03:10:00.576Z,2.6921
2024-03-24T03:11:05.502Z,2.6627
2024-03-24T03:12:10.269Z,2.6760
2024-03-24T03:13:15.177Z,2.6760
2024-03-24T03:14:20.075Z,2.6760
2024-03-24T03:15:24.846Z,2.6760
2024-03-24T03:16:29.700Z,2.6493
2024-03-24T03:17:34.644Z,2.6333
2024-03-24T03:18:39.447Z,2.6066
2024-03-24T03:19:44.255Z,2.6066
2024-03-24T03:20:49.200Z,2.6200
2024-03-24T03:21:54.003Z,2.6066
2024-03-24T03:22:58.822Z,2.5505
2024-03-24T03:24:03.607Z,2.5505
2024-03-24T03:25:08.463Z,2.5212
2024-03-24T03:26:13.384Z,2.5345
2024-03-24T03:27:18.323Z,2.4945
2024-03-24T03:28:23.073Z,2.5212
2024-03-24T03:29:27.946Z,2.4651
2024-03-24T03:30:32.869Z,2.4384
2024-03-24T03:31:37.654Z,2.4517
2024-03-24T03:32:42.509Z,2.4784
2024-03-24T03:33:47.445Z,2.5078
2024-03-24T03:34:52.193Z,2.4090
2024-03-24T03:35:57.084Z,2.3663
2024-03-24T03:37:02.003Z,2.3796
2024-03-24T03:38:06.771Z,2.3396
2024-03-24T03:39:11.614Z,2.3529
2024-03-24T03:40:16.557Z,2.3396
2024-03-24T03:41:21.304Z,2.2969
2024-03-24T03:42:26.192Z,2.3102
2024-03-24T03:43:31.114Z,2.0298
2024-03-24T03:44:35.881Z,1.8856
2024-03-24T03:45:40.876Z,1.8162
2024-03-24T03:46:45.689Z,1.7868
2024-03-24T03:47:50.457Z,1.8029
2024-03-24T03:48:55.627Z,1.7601
2024-03-24T03:50:00.591Z,1.7308
2024-03-24T03:51:05.541Z,1.7601
2024-03-24T03:52:10.545Z,1.7308
2024-03-24T03:53:15.465Z,1.7735
2024-03-24T03:54:20.393Z,1.8296
2024-03-24T03:55:25.187Z,1.8589
2024-03-24T03:56:30.075Z,1.8856
2024-03-24T03:57:34.887Z,1.9444
2024-03-24T03:58:39.679Z,1.9738
2024-03-24T03:59:44.555Z,1.9738
2024-03-24T04:00:49.503Z,2.0565
2024-03-24T04:01:54.306Z,2.0859
2024-03-24T04:02:59.137Z,2.1420
2024-03-24T04:04:04.007Z,2.1687
2024-03-24T04:05:08.813Z,2.2274
2024-03-24T04:06:13.685Z,2.1847
2024-03-24T04:07:18.609Z,2.2408
2024-03-24T04:08:23.451Z,2.2675
2024-03-24T04:09:28.254Z,2.2541
2024-03-24T04:10:33.148Z,2.2408
2024-03-24T04:11:37.977Z,2.2114
2024-03-24T04:12:42.708Z,2.2114
2024-03-24T04:13:47.547Z,2.2274
2024-03-24T04:14:52.454Z,2.2675
2024-03-24T04:15:57.372Z,2.3102
2024-03-24T04:17:02.294Z,2.2675
2024-03-24T04:18:07.079Z,2.2408
2024-03-24T04:19:11.941Z,2.2114
2024-03-24T04:20:16.854Z,2.2408
2024-03-24T04:21:21.677Z,2.2835
2024-03-24T04:22:26.523Z,2.2675
2024-03-24T04:23:31.403Z,2.2274
2024-03-24T04:24:36.199Z,2.2274
2024-03-24T04:25:41.000Z,2.2541
2024-03-24T04:26:45.969Z,2.2541
2024-03-24T04:27:50.764Z,2.2675
2024-03-24T04:28:55.628Z,2.2541
2024-03-24T04:30:00.510Z,2.2541
2024-03-24T04:31:05.376Z,2.3236
2024-03-24T04:32:10.151Z,2.3102
2024-03-24T04:33:15.084Z,2.2969
2024-03-24T04:34:19.867Z,2.2408
2024-03-24T04:35:24.780Z,2.2541
2024-03-24T04:36:29.627Z,2.2274
2024-03-24T04:37:34.405Z,2.2408
2024-03-24T04:38:39.296Z,2.2274
2024-03-24T04:39:44.218Z,2.1981
2024-03-24T04:40:49.226Z,2.2114
2024-03-24T04:41:54.187Z,2.1687
2024-03-24T04:42:58.966Z,2.1687
2024-03-24T04:44:03.778Z,2.1981
2024-03-24T04:45:08.568Z,2.1847
2024-03-24T04:46:13.396Z,2.1687
2024-03-24T04:47:18.344Z,2.1981
2024-03-24T04:48:23.314Z,2.1687
2024-03-24T04:49:28.269Z,2.1553
2024-03-24T04:50:33.051Z,2.1553
2024-03-24T04:51:37.864Z,2.2114
2024-03-24T04:52:45.459Z,2.2274
2024-03-24T04:53:50.645Z,2.2408
2024-03-24T04:54:55.696Z,2.2408
2024-03-24T04:56:00.587Z,2.1981
2024-03-24T04:57:05.537Z,2.1687
2024-03-24T04:58:10.317Z,2.1847
2024-03-24T04:59:15.141Z,2.1847
2024-03-24T05:00:20.131Z,2.2541
2024-03-24T05:01:25.066Z,2.2408
2024-03-24T05:02:30.055Z,2.2274
2024-03-24T05:03:35.004Z,2.2114
2024-03-24T05:04:39.944Z,2.1981
2024-03-24T05:05:44.845Z,2.2274
2024-03-24T05:06:49.659Z,2.2675
2024-03-24T05:07:54.505Z,2.1981
2024-03-24T05:08:59.438Z,2.1847
2024-03-24T05:10:04.229Z,2.2835
2024-03-24T05:11:09.076Z,2.2675
2024-03-24T05:12:13.998Z,2.2541
2024-03-24T05:13:18.782Z,2.2675
2024-03-24T05:14:23.642Z,2.0726
2024-03-24T05:15:28.513Z,2.0165
2024-03-24T05:16:33.290Z,1.9738
2024-03-24T05:17:38.214Z,1.8856
2024-03-24T05:18:43.033Z,1.7174
2024-03-24T05:19:47.828Z,1.6052
2024-03-24T05:20:52.766Z,1.5198
2024-03-24T05:21:57.663Z,1.4637
2024-03-24T05:23:02.495Z,1.4504
2024-03-24T05:24:07.250Z,1.4637
2024-03-24T05:25:12.064Z,1.3516
2024-03-24T05:26:16.928Z,1.3088
2024-03-24T05:27:21.889Z,1.3222
2024-03-24T05:28:27.093Z,1.2955
2024-03-24T05:29:35.233Z,1.2821
2024-03-24T05:30:40.025Z,1.1673
2024-03-24T05:31:44.964Z,1.0685
2024-03-24T05:32:49.886Z,1.0685
2024-03-24T05:33:54.859Z,1.0098
2024-03-24T05:34:59.817Z,0.9403
2024-03-24T05:36:04.597Z,0.8415
2024-03-24T05:37:09.402Z,0.8576
2024-03-24T05:38:14.211Z,0.7588
2024-03-24T05:39:18.999Z,0.7588
2024-03-24T05:40:23.990Z,0.6733
2024-03-24T05:41:28.935Z,0.6600
2024-03-24T05:42:33.708Z,0.7160
2024-03-24T05:43:38.510Z,0.6600
2024-03-24T05:44:43.318Z,0.6733
2024-03-24T05:45:48.108Z,0.7588
2024-03-24T05:46:52.909Z,0.7160
2024-03-24T05:47:57.722Z,0.7427
2024-03-24T05:49:02.520Z,0.7588
2024-03-24T05:50:07.325Z,0.7427
2024-03-24T05:51:12.279Z,0.7027
2024-03-24T05:52:19.027Z,0.7294
2024-03-24T05:53:24.978Z,0.7588
2024-03-24T05:54:29.732Z,0.8282
2024-03-24T05:55:34.636Z,0.7855
2024-03-24T05:56:39.413Z,0.7721
2024-03-24T05:57:44.303Z,0.8976
2024-03-24T05:58:49.157Z,0.9270
2024-03-24T05:59:53.942Z,0.9403
2024-03-24T06:00:58.823Z,1.0258
2024-03-24T06:02:03.785Z,1.0819
2024-03-24T06:03:08.546Z,1.1112
2024-03-24T06:04:13.449Z,1.1967
2024-03-24T06:05:18.306Z,1.2661
2024-03-24T06:06:23.087Z,1.3783
2024-03-24T06:07:27.955Z,1.4076
2024-03-24T06:08:32.870Z,1.4771
2024-03-24T06:09:37.653Z,1.5198
2024-03-24T06:10:42.548Z,1.5625
2024-03-24T06:11:47.419Z,1.6320
2024-03-24T06:12:52.187Z,1.6480
2024-03-24T06:13:57.084Z,1.6613
2024-03-24T06:15:01.903Z,1.6480
2024-03-24T06:16:06.670Z,1.7041
2024-03-24T06:17:11.456Z,1.7041
2024-03-24T06:18:16.307Z,1.7174
2024-03-24T06:19:21.110Z,1.7441
2024-03-24T06:20:25.905Z,1.7041
2024-03-24T06:21:30.671Z,1.7308
2024-03-24T06:22:35.486Z,1.7441
2024-03-24T06:23:40.439Z,1.7735
2024-03-24T06:24:45.351Z,1.8162
2024-03-24T06:25:50.139Z,1.8162
2024-03-24T06:26:55.003Z,1.8429
2024-03-24T06:27:59.926Z,1.9310
2024-03-24T06:29:04.745Z,2.0165
2024-03-24T06:30:09.565Z,2.0859
2024-03-24T06:31:14.463Z,2.0859
2024-03-24T06:32:19.267Z,2.1687
2024-03-24T06:33:24.144Z,2.1981
2024-03-24T06:34:29.083Z,2.2969
2024-03-24T06:35:33.835Z,2.4090
2024-03-24T06:36:38.695Z,2.3796
2024-03-24T06:37:43.476Z,2.4090
2024-03-24T06:38:48.285Z,2.3796
2024-03-24T06:39:53.248Z,2.3796
2024-03-24T06:40:58.034Z,2.4651
2024-03-24T06:42:02.835Z,2.4945
2024-03-24T06:43:07.664Z,2.5212
2024-03-24T06:44:12.454Z,2.5212
2024-03-24T06:45:17.407Z,2.5345
2024-03-24T06:46:22.370Z,2.6627
2024-03-24T06:47:27.293Z,2.6760
2024-03-24T06:48:32.091Z,2.7214
2024-03-24T06:49:36.921Z,2.7348
2024-03-24T06:50:41.828Z,2.7642
2024-03-24T06:51:46.660Z,2.6627
2024-03-24T06:52:51.480Z,2.7481
2024-03-24T06:53:56.375Z,2.7775
2024-03-24T06:55:01.182Z,2.7081
2024-03-24T06:56:06.038Z,2.6627
2024-03-24T06:57:10.998Z,2.8069
2024-03-24T06:58:15.821Z,2.6921
2024-03-24T06:59:20.594Z,2.6627
2024-03-24T07:00:25.403Z,2.7481
2024-03-24T07:01:30.199Z,2.7642
2024-03-24T07:02:35.168Z,2.8069
2024-03-24T07:03:40.130Z,2.8336
2024-03-24T07:04:45.092Z,2.9324
2024-03-24T07:05:50.061Z,2.9458
2024-03-24T07:06:55.009Z,3.0873
2024-03-24T07:07:59.969Z,3.1006
2024-03-24T07:09:04.934Z,3.0178
2024-03-24T07:10:09.867Z,2.9190
2024-03-24T07:11:14.641Z,3.0018
2024-03-24T07:12:19.492Z,2.9751
2024-03-24T07:13:24.498Z,3.0312
2024-03-24T07:14:29.215Z,3.1006
2024-03-24T07:15:34.055Z,3.1434
2024-03-24T07:16:38.961Z,3.0018
2024-03-24T07:17:43.736Z,3.0446
2024-03-24T07:18:48.610Z,3.0312
2024-03-24T07:19:53.546Z,3.1006
2024-03-24T07:20:58.306Z,3.2555
2024-03-24T07:22:03.136Z,3.4531
2024-03-24T07:23:08.086Z,3.7095
2024-03-24T07:24:12.862Z,3.6667
2024-03-24T07:25:17.657Z,3.8083
2024-03-24T07:26:24.921Z,3.9338
2024-03-24T07:27:30.230Z,3.8350
2024-03-24T07:28:34.976Z,3.6934
2024-03-24T07:29:39.840Z,3.6374
2024-03-24T07:30:44.789Z,3.5252
2024-03-24T07:31:49.726Z,3.6240
2024-03-24T07:32:54.517Z,3.6534
2024-03-24T07:33:59.337Z,3.6374
2024-03-24T07:35:04.289Z,3.4985
2024-03-24T07:36:09.233Z,3.5546
2024-03-24T07:37:14.023Z,3.3970
2024-03-24T07:38:18.844Z,3.4237
2024-03-24T07:39:23.822Z,3.5546
2024-03-24T07:40:28.767Z,3.5679
2024-03-24T07:41:33.748Z,3.7923
2024-03-24T07:42:39.784Z,3.8643
2024-03-24T07:43:45.546Z,4.0593
2024-03-24T07:44:50.351Z,4.1875
2024-03-24T07:45:55.158Z,4.2596
2024-03-24T07:46:59.922Z,4.2008
2024-03-24T07:48:04.764Z,4.0753
2024-03-24T07:49:09.714Z,4.3717
2024-03-24T07:50:14.481Z,4.3584
2024-03-24T07:51:19.342Z,4.3584
2024-03-24T07:52:24.279Z,4.2142
2024-03-24T07:53:29.027Z,4.4438
2024-03-24T07:54:33.910Z,4.4144
2024-03-24T07:55:38.824Z,4.3023
2024-03-24T07:56:43.589Z,4.4011
2024-03-24T07:57:48.442Z,4.3290
2024-03-24T07:58:53.382Z,4.4144
2024-03-24T07:59:58.266Z,4.4839
2024-03-24T08:01:03.063Z,4.5987
2024-03-24T08:02:07.942Z,4.4705
2024-03-24T08:03:12.843Z,4.4144
2024-03-24T08:04:17.696Z,4.4572
2024-03-24T08:05:22.516Z,4.4572
2024-03-24T08:06:27.412Z,4.4572
2024-03-24T08:07:32.260Z,4.4438
2024-03-24T08:08:37.055Z,4.4999
2024-03-24T08:09:41.846Z,4.5399
2024-03-24T08:10:46.695Z,4.5399
2024-03-24T08:11:51.622Z,4.5560
2024-03-24T08:12:56.405Z,4.8096
2024-03-24T08:14:01.230Z,5.1354
2024-03-24T08:15:06.190Z,5.0366
2024-03-24T08:16:10.956Z,4.9352
2024-03-24T08:17:15.773Z,4.7936
2024-03-24T08:18:20.758Z,4.6387
2024-03-24T08:19:25.565Z,4.5693
2024-03-24T08:20:30.437Z,4.6948
2024-03-24T08:21:35.328Z,4.6548
2024-03-24T08:22:40.120Z,4.7108
2024-03-24T08:23:44.935Z,4.5399
2024-03-24T08:24:49.885Z,4.6681
2024-03-24T08:25:54.712Z,4.6681
2024-03-24T08:26:59.470Z,4.4705
2024-03-24T08:28:04.429Z,4.6254
2024-03-24T08:29:09.206Z,4.8791
2024-03-24T08:30:14.036Z,4.7509
2024-03-24T08:31:18.991Z,4.5827
2024-03-24T08:32:23.957Z,4.6681
2024-03-24T08:33:28.738Z,4.5827
2024-03-24T08:34:33.557Z,4.4705
2024-03-24T08:35:38.480Z,4.6254
2024-03-24T08:36:43.273Z,4.7375
2024-03-24T08:37:48.114Z,4.7108
2024-03-24T08:38:53.058Z,4.5987
2024-03-24T08:39:57.821Z,4.5987
2024-03-24T08:41:02.695Z,4.7509
2024-03-24T08:42:07.582Z,4.5399
2024-03-24T08:43:12.368Z,4.5693
2024-03-24T08:44:17.138Z,4.5693
2024-03-24T08:45:21.954Z,4.5132
2024-03-24T08:46:26.881Z,4.4999
2024-03-24T08:47:31.691Z,4.7108
2024-03-24T08:48:42.043Z,5.5413
2024-03-24T08:49:47.174Z,5.6828
2024-03-24T08:50:52.201Z,6.2356
2024-03-24T08:51:57.067Z,6.0246
2024-03-24T08:53:01.953Z,5.5013
2024-03-24T08:54:06.755Z,5.4452
2024-03-24T08:55:11.673Z,5.2743
2024-03-24T08:56:16.516Z,4.8497
2024-03-24T08:57:21.334Z,4.4011
2024-03-24T08:58:26.180Z,4.5987
2024-03-24T08:59:30.969Z,4.4438
2024-03-24T09:00:35.747Z,4.4438
2024-03-24T09:01:41.345Z,4.5399
2024-03-24T09:02:46.265Z,4.2302
2024-03-24T09:03:51.049Z,4.2008
2024-03-24T09:04:55.945Z,4.4144
2024-03-24T09:06:00.846Z,4.7936
2024-03-24T09:07:05.656Z,4.6387
2024-03-24T09:08:10.410Z,5.4719
2024-03-24T09:09:15.250Z,5.6695
2024-03-24T09:10:20.021Z,5.2903
2024-03-24T09:11:24.805Z,5.1061
2024-03-24T09:12:29.591Z,5.2903
2024-03-24T09:13:34.356Z,5.5840
2024-03-24T09:14:39.309Z,5.8965
2024-03-24T09:15:44.247Z,6.2917
2024-03-24T09:16:49.030Z,6.7002
2024-03-24T09:17:53.865Z,6.7990
2024-03-24T09:18:58.800Z,7.0100
2024-03-24T09:20:03.580Z,7.1515
2024-03-24T09:21:08.695Z,6.8845
2024-03-24T09:22:13.503Z,6.7990
2024-03-24T09:23:18.264Z,6.2062
2024-03-24T09:24:23.074Z,6.7857
2024-03-24T09:25:27.939Z,6.6602
2024-03-24T09:26:32.733Z,6.9112
2024-03-24T09:27:37.531Z,7.2210
2024-03-24T09:28:42.519Z,8.0407
2024-03-24T09:29:47.511Z,7.7016
2024-03-24T09:30:52.437Z,7.9553
2024-03-24T09:31:57.391Z,8.2544
2024-03-24T09:33:02.196Z,8.4226
2024-03-24T09:34:06.973Z,7.9713
2024-03-24T09:35:13.553Z,8.0114
2024-03-24T09:36:18.712Z,9.0715
2024-03-24T09:37:23.535Z,8.2410
2024-03-24T09:38:30.853Z,7.0260
2024-03-24T09:39:37.534Z,6.9833
2024-03-24T09:40:42.334Z,7.9126
2024-03-24T09:41:47.143Z,7.2076
2024-03-24T09:42:52.113Z,6.5427
2024-03-24T09:43:56.883Z,6.5881
2024-03-24T09:45:01.662Z,7.8725
2024-03-24T09:46:06.452Z,8.5641
2024-03-24T09:47:11.314Z,7.6188
2024-03-24T09:48:16.284Z,6.9833
2024-03-24T09:49:21.227Z,6.5721
2024-03-24T09:50:26.000Z,6.7163
2024-03-24T09:51:30.832Z,8.4226
2024-03-24T09:52:35.762Z,9.6483
2024-03-24T09:53:40.560Z,9.7364
2024-03-24T09:54:45.411Z,9.1997
2024-03-24T09:55:50.318Z,10.7938
2024-03-24T09:56:55.108Z,11.1757
2024-03-24T09:58:07.017Z,9.9340
2024-03-24T09:59:10.727Z,8.9460
2024-03-24T10:00:15.546Z,8.5641
2024-03-24T10:01:20.347Z,8.8445
2024-03-24T10:02:25.232Z,11.6537
2024-03-24T10:03:30.003Z,10.3426
2024-03-24T10:04:34.788Z,10.4707
2024-03-24T10:05:39.714Z,9.6643
2024-03-24T10:06:44.500Z,8.4226
2024-03-24T10:07:49.322Z,7.8859
2024-03-24T10:08:54.102Z,7.5761
2024-03-24T10:09:58.996Z,7.1515
2024-03-24T10:11:03.983Z,6.8151
2024-03-24T10:12:08.743Z,6.8418
2024-03-24T10:13:13.565Z,6.7990
2024-03-24T10:14:18.515Z,6.6602
2024-03-24T10:15:23.474Z,6.3905
2024-03-24T10:16:28.485Z,6.0941
2024-03-24T10:17:33.387Z,6.0380
2024-03-24T10:18:38.373Z,5.9098
2024-03-24T10:19:43.277Z,5.8110
2024-03-24T10:20:48.055Z,5.8698
2024-03-24T10:21:52.941Z,5.7683
2024-03-24T10:22:57.843Z,5.3037
2024-03-24T10:24:02.704Z,5.2182
2024-03-24T10:25:07.491Z,5.1782
2024-03-24T10:26:12.261Z,4.9645
2024-03-24T10:27:17.091Z,5.0046
2024-03-24T10:28:22.036Z,5.0233
2024-03-24T10:29:26.967Z,5.2476
2024-03-24T10:30:31.765Z,5.0366
2024-03-24T10:31:36.597Z,5.0793
2024-03-24T10:32:41.525Z,5.1488
2024-03-24T10:33:46.316Z,5.6401
2024-03-24T10:34:51.162Z,5.5840
2024-03-24T10:35:56.111Z,7.6616
2024-03-24T10:37:00.909Z,8.3799
2024-03-24T10:38:05.711Z,8.9887
2024-03-24T10:39:10.669Z,9.6483
2024-03-24T10:40:15.424Z,7.2930
2024-03-24T10:41:20.209Z,7.6883
2024-03-24T10:42:25.041Z,8.6336
2024-03-24T10:43:29.879Z,10.2838
2024-03-24T10:44:34.664Z,10.6123
2024-03-24T10:45:39.477Z,8.7617
2024-03-24T10:46:44.431Z,8.8178
2024-03-24T10:47:49.230Z,9.4934
2024-03-24T10:48:54.046Z,10.0462
2024-03-24T10:49:58.999Z,9.1302
2024-03-24T10:51:03.794Z,10.4013
2024-03-24T10:52:08.681Z,10.2998
2024-03-24T10:53:13.446Z,10.5962
2024-03-24T10:54:18.222Z,12.0382
2024-03-24T10:55:23.154Z,11.6964
2024-03-24T10:56:28.135Z,11.6964
2024-03-24T10:57:32.917Z,10.9621
2024-03-24T10:58:37.711Z,12.0382
2024-03-24T10:59:42.675Z,9.8486
2024-03-24T11:00:47.454Z,9.3973
2024-03-24T11:01:52.290Z,8.2677
2024-03-24T11:02:57.211Z,7.9980
2024-03-24T11:04:02.014Z,7.6055
2024-03-24T11:05:06.826Z,6.7990
2024-03-24T11:06:14.769Z,6.4733
2024-03-24T11:07:20.894Z,5.8270
2024-03-24T11:08:25.810Z,4.8363
2024-03-24T11:09:30.607Z,4.6120
2024-03-24T11:10:35.461Z,4.3584
2024-03-24T11:11:40.365Z,3.7495
2024-03-24T11:12:45.140Z,3.6534
2024-03-24T11:13:50.016Z,3.2555
2024-03-24T11:14:54.943Z,3.1994
2024-03-24T11:15:59.705Z,3.2689
2024-03-24T11:17:04.596Z,3.5973
2024-03-24T11:18:09.499Z,3.8911
2024-03-24T11:19:14.282Z,4.3877
2024-03-24T11:20:19.134Z,4.8924
2024-03-24T11:21:24.086Z,5.0366
2024-03-24T11:22:28.869Z,5.0927
2024-03-24T11:23:33.707Z,5.1915
2024-03-24T11:24:38.610Z,5.6401
2024-03-24T11:25:43.452Z,5.8110
2024-03-24T11:26:48.279Z,6.0807
2024-03-24T11:27:53.242Z,6.2623
2024-03-24T11:28:58.184Z,6.1795
2024-03-24T11:30:03.179Z,7.0260
2024-03-24T11:31:08.117Z,7.9126
2024-03-24T11:32:13.131Z,8.0541
2024-03-24T11:33:18.013Z,9.0715
2024-03-24T11:34:22.956Z,7.9286
2024-03-24T11:35:27.743Z,7.1809
2024-03-24T11:36:32.650Z,6.9539
2024-03-24T11:37:37.616Z,7.1649
2024-03-24T11:38:42.403Z,7.8859
2024-03-24T11:39:47.191Z,8.9139
2024-03-24T11:40:53.486Z,9.3973
2024-03-24T11:41:58.415Z,9.6643
2024-03-24T11:43:03.378Z,9.7658
2024-03-24T11:44:08.295Z,9.9046
2024-03-24T11:45:13.278Z,9.2985
2024-03-24T11:46:18.055Z,9.6082
2024-03-24T11:47:22.898Z,9.4667
2024-03-24T11:48:27.807Z,10.2010
2024-03-24T11:49:32.595Z,10.9487
2024-03-24T11:50:37.445Z,10.2998
2024-03-24T11:51:42.384Z,9.4667
2024-03-24T11:52:49.362Z,8.8579
2024-03-24T11:53:55.817Z,9.9340
2024-03-24T11:55:00.642Z,9.6483
2024-03-24T11:56:05.441Z,9.8913
2024-03-24T11:57:10.400Z,9.5094
2024-03-24T11:58:15.225Z,9.7498
2024-03-24T11:59:19.998Z,9.2557
2024-03-24T12:00:24.962Z,9.8058
2024-03-24T12:01:29.927Z,9.7364
2024-03-24T12:02:34.876Z,10.2838
2024-03-24T12:03:39.849Z,10.3559
2024-03-24T12:04:44.742Z,9.2264
2024-03-24T12:05:49.552Z,9.3252
2024-03-24T12:06:54.418Z,8.5081
2024-03-24T12:07:59.325Z,8.6896
2024-03-24T12:09:04.133Z,8.6469
2024-03-24T12:10:08.951Z,8.7324
2024-03-24T12:11:13.842Z,8.5081
2024-03-24T12:12:18.657Z,8.1849
2024-03-24T12:13:23.519Z,9.3973
2024-03-24T12:14:28.403Z,9.9767
2024-03-24T12:15:33.221Z,9.5655
2024-03-24T12:16:38.080Z,9.0448
2024-03-24T12:17:42.994Z,8.8018
2024-03-24T12:18:47.790Z,8.6629
2024-03-24T12:19:52.541Z,8.7884
2024-03-24T12:20:57.339Z,9.2985
2024-03-24T12:22:02.237Z,10.2010
2024-03-24T12:23:07.199Z,10.0462
2024-03-24T12:24:12.097Z,10.7378
2024-03-24T12:25:16.914Z,9.4240
2024-03-24T12:26:21.742Z,8.3532
2024-03-24T12:27:26.663Z,8.8312
2024-03-24T12:28:31.608Z,10.0168
2024-03-24T12:29:36.405Z,10.2277
2024-03-24T12:30:41.216Z,10.6523
2024-03-24T12:31:46.043Z,10.0034
2024-03-24T12:32:50.881Z,10.5402
2024-03-24T12:33:55.780Z,8.9460
2024-03-24T12:35:00.575Z,9.8486
2024-03-24T12:36:05.430Z,8.8445
2024-03-24T12:37:10.365Z,8.1662
2024-03-24T12:38:15.183Z,7.8992
2024-03-24T12:39:20.005Z,7.6055
2024-03-24T12:40:24.957Z,7.3491
2024-03-24T12:41:29.923Z,7.4907
2024-03-24T12:42:34.865Z,7.3945
2024-03-24T12:43:39.841Z,7.5628
2024-03-24T12:44:44.791Z,8.1529
2024-03-24T12:45:49.767Z,8.7884
2024-03-24T12:46:54.710Z,11.0769
2024-03-24T12:47:59.506Z,10.7244
2024-03-24T12:49:04.325Z,10.9220
2024-03-24T12:50:17.641Z,11.4294
2024-03-24T12:51:19.960Z,10.8499
2024-03-24T12:52:24.776Z,10.9220
2024-03-24T12:53:29.596Z,11.4427
2024-03-24T12:54:34.491Z,11.5843
2024-03-24T12:55:39.308Z,11.2184
2024-03-24T12:56:44.139Z,11.6403
2024-03-24T12:57:49.092Z,11.7552
2024-03-24T12:58:56.242Z,11.7845
2024-03-24T13:00:02.874Z,12.2919
2024-03-24T13:01:07.640Z,11.5148
2024-03-24T13:02:12.487Z,11.8406
2024-03-24T13:03:17.339Z,10.8793
2024-03-24T13:04:22.123Z,10.9781
2024-03-24T13:05:27.026Z,12.3320
2024-03-24T13:06:31.982Z,11.5843
2024-03-24T13:07:36.764Z,10.2998
2024-03-24T13:08:41.602Z,9.9046
2024-03-24T13:09:46.400Z,8.9006
2024-03-24T13:10:51.271Z,8.3371
2024-03-24T13:11:58.102Z,7.8004
2024-03-24T13:13:04.635Z,7.5895
2024-03-24T13:14:09.612Z,7.4506
2024-03-24T13:15:14.555Z,7.1809
2024-03-24T13:16:19.432Z,7.4079
2024-03-24T13:17:24.289Z,7.4346
2024-03-24T13:18:29.104Z,7.5494
2024-03-24T13:19:34.040Z,7.7310
2024-03-24T13:20:38.814Z,7.9847
2024-03-24T13:21:43.714Z,8.2544
2024-03-24T13:22:48.552Z,8.9593
2024-03-24T13:23:53.391Z,9.2130
2024-03-24T13:24:58.235Z,9.2264
2024-03-24T13:26:03.036Z,8.8872
2024-03-24T13:27:07.836Z,8.5908
2024-03-24T13:28:12.812Z,8.2811